createdAt,value
2018-05-01T00:00:52.951Z,6.27
2018-05-01T00:03:19.832Z,8.80
2018-05-01T00:05:46.624Z,5.17
2018-05-01T00:08:13.405Z,6.97
2018-05-01T00:10:50.089Z,5.37
2018-05-01T00:13:17.242Z,5.47
2018-05-01T00:15:44.054Z,5.00
2018-05-01T00:18:11.252Z,4.93
2018-05-01T00:20:38.010Z,6.60
2018-05-01T00:23:04.974Z,6.70
2018-05-01T00:25:31.808Z,4.50
2018-05-01T00:27:58.561Z,4.90
2018-05-01T00:30:25.332Z,6.97
2018-05-01T00:32:52.096Z,5.50
2018-05-01T00:35:19.824Z,3.40
2018-05-01T00:37:47.100Z,6.87
2018-05-01T00:40:13.852Z,11.07
2018-05-01T00:42:40.676Z,8.20
2018-05-01T00:45:07.455Z,3.10
2018-05-01T00:47:34.781Z,3.67
2018-05-01T00:50:01.552Z,3.40
2018-05-01T00:52:34.292Z,3.33
2018-05-01T00:55:01.051Z,4.70
2018-05-01T00:57:27.900Z,5.50
2018-05-01T00:59:54.998Z,8.37
2018-05-01T01:02:22.107Z,8.13
2018-05-01T01:04:48.925Z,2.97
2018-05-01T01:07:15.709Z,4.43
2018-05-01T01:09:42.484Z,7.73
2018-05-01T01:12:09.273Z,8.07
2018-05-01T01:14:36.285Z,4.47
2018-05-01T01:17:03.050Z,4.77
2018-05-01T01:19:29.900Z,4.07
2018-05-01T01:21:56.706Z,5.30
2018-05-01T01:24:23.556Z,8.23
2018-05-01T01:26:50.389Z,3.80
2018-05-01T01:29:17.184Z,5.23
2018-05-01T01:31:43.994Z,4.77
2018-05-01T01:34:11.471Z,3.50
2018-05-01T01:36:38.060Z,4.73
2018-05-01T01:39:05.356Z,4.53
2018-05-01T01:41:31.982Z,5.27
2018-05-01T01:43:58.522Z,4.00
2018-05-01T01:46:25.620Z,5.50
2018-05-01T01:48:52.316Z,3.33
2018-05-01T01:51:18.832Z,3.73
2018-05-01T01:53:45.381Z,5.77
2018-05-01T01:56:11.917Z,4.27
2018-05-01T01:58:38.433Z,5.77
2018-05-01T02:01:05.063Z,7.57
2018-05-01T02:03:31.601Z,7.93
2018-05-01T02:05:58.109Z,3.20
2018-05-01T02:08:34.560Z,4.30
2018-05-01T02:11:01.694Z,10.67
2018-05-01T02:13:28.216Z,7.83
2018-05-01T02:15:54.812Z,5.60
2018-05-01T02:18:21.344Z,5.20
2018-05-01T02:20:47.938Z,6.87
2018-05-01T02:23:14.501Z,4.30
2018-05-01T02:25:41.585Z,4.83
2018-05-01T02:28:08.342Z,5.27
2018-05-01T02:30:35.683Z,7.37
2018-05-01T02:33:02.228Z,5.87
2018-05-01T02:35:28.782Z,5.40
2018-05-01T02:37:55.360Z,7.50
2018-05-01T02:40:21.990Z,5.80
2018-05-01T02:42:48.513Z,5.77
2018-05-01T02:45:15.047Z,10.27
2018-05-01T02:47:41.567Z,5.43
2018-05-01T02:50:08.436Z,10.10
2018-05-01T02:52:34.998Z,4.07
2018-05-01T02:55:01.527Z,6.87
2018-05-01T02:57:28.115Z,5.70
2018-05-01T02:59:54.666Z,5.37
2018-05-01T03:02:21.199Z,5.27
2018-05-01T03:04:47.721Z,5.50
2018-05-01T03:07:20.437Z,5.93
2018-05-01T03:09:47.718Z,6.03
2018-05-01T03:12:14.997Z,4.03
2018-05-01T03:14:41.518Z,6.90
2018-05-01T03:17:08.069Z,5.87
2018-05-01T03:19:35.386Z,5.90
2018-05-01T03:22:02.854Z,6.20
2018-05-01T03:24:29.391Z,9.23
2018-05-01T03:26:55.959Z,6.23
2018-05-01T03:29:22.485Z,4.33
2018-05-01T03:31:49.030Z,11.40
2018-05-01T03:34:15.668Z,5.67
2018-05-01T03:36:42.193Z,5.70
2018-05-01T03:39:08.791Z,5.07
2018-05-01T03:41:35.244Z,7.50
2018-05-01T03:44:01.797Z,4.00
2018-05-01T03:46:28.584Z,6.60
2018-05-01T03:48:55.091Z,4.80
2018-05-01T03:51:21.612Z,9.00
2018-05-01T03:53:48.144Z,8.27
2018-05-01T03:56:14.781Z,7.07
2018-05-01T03:58:41.369Z,5.30
2018-05-01T04:01:07.916Z,7.97
2018-05-01T04:03:34.457Z,7.33
2018-05-01T04:06:01.003Z,8.33
2018-05-01T04:08:27.497Z,8.80
2018-05-01T04:10:54.008Z,5.90
2018-05-01T04:13:20.560Z,4.60
2018-05-01T04:15:47.180Z,4.83
2018-05-01T04:18:13.895Z,6.77
2018-05-01T04:20:40.507Z,4.97
2018-05-01T04:23:07.041Z,7.50
2018-05-01T04:25:33.608Z,9.10
2018-05-01T04:28:00.888Z,11.33
2018-05-01T04:30:27.479Z,6.83
2018-05-01T04:32:54.070Z,10.90
2018-05-01T04:35:21.400Z,5.53
2018-05-01T04:37:47.956Z,8.27
2018-05-01T04:40:14.545Z,7.40
2018-05-01T04:42:41.133Z,8.50
2018-05-01T04:45:07.642Z,6.37
2018-05-01T04:47:34.201Z,10.03
2018-05-01T04:50:00.742Z,8.63
2018-05-01T04:52:27.255Z,9.77
2018-05-01T04:54:53.804Z,6.93
2018-05-01T04:57:21.136Z,7.77
2018-05-01T04:59:47.681Z,11.57
2018-05-01T05:02:14.999Z,9.03
2018-05-01T05:04:41.563Z,8.13
2018-05-01T05:07:08.094Z,5.00
2018-05-01T05:09:34.725Z,6.60
2018-05-01T05:12:01.948Z,7.57
2018-05-01T05:14:29.017Z,6.43
2018-05-01T05:16:55.520Z,7.90
2018-05-01T05:19:22.058Z,5.80
2018-05-01T05:21:48.589Z,8.83
2018-05-01T05:24:15.103Z,6.83
2018-05-01T05:26:41.901Z,7.03
2018-05-01T05:29:08.473Z,8.47
2018-05-01T05:31:35.006Z,6.50
2018-05-01T05:34:02.284Z,8.03
2018-05-01T05:36:28.795Z,8.50
2018-05-01T05:38:55.742Z,8.50
2018-05-01T05:41:22.330Z,6.07
2018-05-01T05:43:48.891Z,7.47
2018-05-01T05:46:15.405Z,10.40
2018-05-01T05:48:42.736Z,8.27
2018-05-01T05:51:09.977Z,14.03
2018-05-01T05:53:36.525Z,11.23
2018-05-01T05:56:03.037Z,9.00
2018-05-01T05:58:29.540Z,6.73
2018-05-01T06:00:56.229Z,9.80
2018-05-01T06:03:22.777Z,6.93
2018-05-01T06:05:50.057Z,7.33
2018-05-01T06:08:16.641Z,5.77
2018-05-01T06:10:43.158Z,6.40
2018-05-01T06:13:10.173Z,9.60
2018-05-01T06:15:36.680Z,7.27
2018-05-01T06:18:03.309Z,7.53
2018-05-01T06:20:29.930Z,7.23
2018-05-01T06:22:57.392Z,3.87
2018-05-01T06:25:24.216Z,4.53
2018-05-01T06:27:50.768Z,5.43
2018-05-01T06:30:17.304Z,7.10
2018-05-01T06:32:43.845Z,3.10
2018-05-01T06:35:10.382Z,5.43
2018-05-01T06:37:37.272Z,4.47
2018-05-01T06:40:04.647Z,4.30
2018-05-01T06:42:31.224Z,3.60
2018-05-01T06:44:57.786Z,3.17
2018-05-01T06:47:24.347Z,4.53
2018-05-01T06:49:51.285Z,3.07
2018-05-01T06:52:18.254Z,2.20
2018-05-01T06:54:44.770Z,5.80
2018-05-01T06:57:11.292Z,2.03
2018-05-01T06:59:37.841Z,4.70
2018-05-01T07:02:04.387Z,6.70
2018-05-01T07:04:31.044Z,11.17
2018-05-01T07:06:57.522Z,4.47
2018-05-01T07:09:24.160Z,10.83
2018-05-01T07:11:50.674Z,10.90
2018-05-01T07:14:18.634Z,14.67
2018-05-01T07:16:45.432Z,7.10
2018-05-01T07:19:12.641Z,9.60
2018-05-01T07:21:39.956Z,5.00
2018-05-01T07:24:06.488Z,5.90
2018-05-01T07:26:33.049Z,4.50
2018-05-01T07:28:59.564Z,5.73
2018-05-01T07:31:26.103Z,4.80
2018-05-01T07:33:52.624Z,4.20
2018-05-01T07:36:19.158Z,3.27
2018-05-01T07:38:45.696Z,5.70
2018-05-01T07:41:12.800Z,2.97
2018-05-01T07:43:39.523Z,3.17
2018-05-01T07:46:06.082Z,3.93
2018-05-01T07:48:32.779Z,3.57
2018-05-01T07:50:59.333Z,2.70
2018-05-01T07:53:25.872Z,4.33
2018-05-01T07:55:52.477Z,5.07
2018-05-01T07:58:19.028Z,4.03
2018-05-01T08:00:45.981Z,4.83
2018-05-01T08:03:12.529Z,7.53
2018-05-01T08:05:39.989Z,3.40
2018-05-01T08:08:06.978Z,3.43
2018-05-01T08:10:33.562Z,5.37
2018-05-01T08:13:01.721Z,3.50
2018-05-01T08:15:28.280Z,4.73
2018-05-01T08:17:56.498Z,3.87
2018-05-01T08:20:23.020Z,3.70
2018-05-01T08:22:49.672Z,6.07
2018-05-01T08:25:17.048Z,3.00
2018-05-01T08:27:44.630Z,3.43
2018-05-01T08:30:11.178Z,4.40
2018-05-01T08:32:37.809Z,2.87
2018-05-01T08:35:04.361Z,9.00
2018-05-01T08:37:31.228Z,3.70
2018-05-01T08:39:57.810Z,4.07
2018-05-01T08:42:24.345Z,2.30
2018-05-01T08:44:50.893Z,2.00
2018-05-01T08:47:17.418Z,3.00
2018-05-01T08:49:43.999Z,2.03
2018-05-01T08:52:10.553Z,6.73
2018-05-01T08:54:37.208Z,4.43
2018-05-01T08:57:03.723Z,7.90
2018-05-01T08:59:30.290Z,3.83
2018-05-01T09:01:57.896Z,3.00
2018-05-01T09:04:24.820Z,4.30
2018-05-01T09:06:51.404Z,5.03
2018-05-01T09:09:18.345Z,3.80
2018-05-01T09:11:44.962Z,6.60
2018-05-01T09:14:11.534Z,3.07
2018-05-01T09:16:38.885Z,3.33
2018-05-01T09:19:07.059Z,3.90
2018-05-01T09:21:34.552Z,2.47
2018-05-01T09:24:01.236Z,5.07
2018-05-01T09:26:27.944Z,5.60
2018-05-01T09:29:05.320Z,2.33
2018-05-01T09:31:32.125Z,2.57
2018-05-01T09:33:59.227Z,2.53
2018-05-01T09:36:25.772Z,3.00
2018-05-01T09:38:52.409Z,2.90
2018-05-01T09:41:18.940Z,7.37
2018-05-01T09:43:45.738Z,2.10
2018-05-01T09:46:12.738Z,2.20
2018-05-01T09:48:39.297Z,2.47
2018-05-01T09:51:05.952Z,2.30
2018-05-01T09:53:32.764Z,2.13
2018-05-01T09:56:00.348Z,3.67
2018-05-01T09:58:27.609Z,3.57
2018-05-01T10:00:54.765Z,2.30
2018-05-01T10:03:21.592Z,1.90
2018-05-01T10:05:48.364Z,2.17
2018-05-01T10:08:16.509Z,7.17
2018-05-01T10:10:43.308Z,4.80
2018-05-01T10:13:10.684Z,1.80
2018-05-01T10:15:37.492Z,2.87
2018-05-01T10:18:04.683Z,4.77
2018-05-01T10:20:31.455Z,3.30
2018-05-01T10:22:59.569Z,4.07
2018-05-01T10:25:26.442Z,3.87
2018-05-01T10:27:53.701Z,2.20
2018-05-01T10:30:20.596Z,6.43
2018-05-01T10:32:48.779Z,2.03
2018-05-01T10:35:16.356Z,2.10
2018-05-01T10:37:44.154Z,2.33
2018-05-01T10:40:11.029Z,7.07
2018-05-01T10:42:37.849Z,3.67
2018-05-01T10:45:05.589Z,2.53
2018-05-01T10:47:32.424Z,2.40
2018-05-01T10:49:59.560Z,1.90
2018-05-01T10:52:26.369Z,4.20
2018-05-01T10:54:53.545Z,3.37
2018-05-01T10:57:20.374Z,2.77
2018-05-01T10:59:47.152Z,1.90
2018-05-01T11:02:15.536Z,1.93
2018-05-01T11:04:42.993Z,2.10
2018-05-01T11:07:09.916Z,2.00
2018-05-01T11:09:37.321Z,1.90
2018-05-01T11:12:04.272Z,1.97
2018-05-01T11:14:31.077Z,3.80
2018-05-01T11:16:57.928Z,2.03
2018-05-01T11:19:24.720Z,1.87
2018-05-01T11:21:51.585Z,2.33
2018-05-01T11:24:19.410Z,2.53
2018-05-01T11:26:47.322Z,2.13
2018-05-01T11:29:14.781Z,5.17
2018-05-01T11:31:42.255Z,2.60
2018-05-01T11:34:09.289Z,3.60
2018-05-01T11:36:36.821Z,5.10
2018-05-01T11:39:04.746Z,3.70
2018-05-01T11:41:41.589Z,7.80
2018-05-01T11:44:08.401Z,4.00
2018-05-01T11:46:35.241Z,2.37
2018-05-01T11:49:02.146Z,3.73
2018-05-01T11:51:29.437Z,2.87
2018-05-01T11:53:57.528Z,3.10
2018-05-01T11:56:24.336Z,4.30
2018-05-01T11:58:51.217Z,3.80
2018-05-01T12:01:28.691Z,4.97
2018-05-01T12:03:56.377Z,3.60
2018-05-01T12:06:23.312Z,2.80
2018-05-01T12:08:50.209Z,2.90
2018-05-01T12:11:17.569Z,7.63
2018-05-01T12:13:44.458Z,3.90
2018-05-01T12:16:11.888Z,3.30
2018-05-01T12:18:38.754Z,3.87
2018-05-01T12:21:06.010Z,4.20
2018-05-01T12:23:32.816Z,3.97
2018-05-01T12:26:00.547Z,4.50
2018-05-01T12:28:28.067Z,4.63
2018-05-01T12:30:54.924Z,6.10
2018-05-01T12:33:21.839Z,5.47
2018-05-01T12:35:49.265Z,6.47
2018-05-01T12:38:16.106Z,4.90
2018-05-01T12:40:43.723Z,5.47
2018-05-01T12:43:10.846Z,7.13
2018-05-01T12:45:37.627Z,7.27
2018-05-01T12:48:04.480Z,7.87
2018-05-01T12:50:32.009Z,5.40
2018-05-01T12:53:09.715Z,8.10
2018-05-01T12:55:36.994Z,6.53
2018-05-01T12:58:03.826Z,5.93
2018-05-01T13:00:30.687Z,6.17
2018-05-01T13:02:58.593Z,5.77
2018-05-01T13:05:25.764Z,3.93
2018-05-01T13:07:52.640Z,4.30
2018-05-01T13:10:19.557Z,7.93
2018-05-01T13:12:46.908Z,4.70
2018-05-01T13:15:13.727Z,9.17
2018-05-01T13:17:40.646Z,4.20
2018-05-01T13:20:07.452Z,4.40
2018-05-01T13:22:34.257Z,4.30
2018-05-01T13:25:01.209Z,6.77
2018-05-01T13:27:28.140Z,3.93
2018-05-01T13:29:55.123Z,3.87
2018-05-01T13:32:21.965Z,3.40
2018-05-01T13:34:49.706Z,3.27
2018-05-01T13:37:16.493Z,6.57
2018-05-01T13:39:43.319Z,5.10
2018-05-01T13:42:20.090Z,4.07
2018-05-01T13:44:47.192Z,3.33
2018-05-01T13:47:14.708Z,7.60
2018-05-01T13:49:42.133Z,4.00
2018-05-01T13:52:09.138Z,3.23
2018-05-01T13:54:35.959Z,3.83
2018-05-01T13:57:41.812Z,3.93
2018-05-01T14:00:10.383Z,6.17
2018-05-01T14:02:38.305Z,4.17
2018-05-01T14:05:06.809Z,3.60
2018-05-01T14:07:34.839Z,4.40
2018-05-01T14:10:03.386Z,4.33
2018-05-01T14:12:33.215Z,6.13
2018-05-01T14:15:01.199Z,3.90
2018-05-01T14:17:29.476Z,5.67
2018-05-01T14:19:58.236Z,4.00
2018-05-01T14:22:27.171Z,5.60
2018-05-01T14:37:55.642Z,4.90
2018-05-01T14:40:24.633Z,3.70
2018-05-01T14:42:52.711Z,4.03
2018-05-01T14:45:21.377Z,6.83
2018-05-01T14:47:50.441Z,3.87
2018-05-01T14:50:18.526Z,6.43
2018-05-01T14:52:47.983Z,5.37
2018-05-01T14:55:15.975Z,4.37
2018-05-01T14:57:44.142Z,5.40
2018-05-01T15:00:12.673Z,6.03
2018-05-01T15:02:44.976Z,3.83
2018-05-01T15:05:13.173Z,4.40
2018-05-01T15:07:41.955Z,3.70
2018-05-01T15:10:10.455Z,4.17
2018-05-01T15:12:38.629Z,4.67
2018-05-01T15:15:07.434Z,3.77
2018-05-01T15:17:37.617Z,3.63
2018-05-01T15:20:05.770Z,9.93
2018-05-01T15:22:33.646Z,3.43
2018-05-01T15:25:01.504Z,3.60
2018-05-01T15:27:29.905Z,4.63
2018-05-01T15:29:58.412Z,5.03
2018-05-01T15:32:28.504Z,5.07
2018-05-01T15:34:56.724Z,3.70
2018-05-01T15:37:24.753Z,3.97
2018-05-01T15:39:53.706Z,4.27
2018-05-01T15:42:21.584Z,7.77
2018-05-01T15:44:50.225Z,5.40
2018-05-01T15:48:47.427Z,5.33
2018-05-01T15:51:15.352Z,6.93
2018-05-01T15:53:43.892Z,3.93
2018-05-01T15:56:11.876Z,6.63
2018-05-01T15:58:40.804Z,4.47
2018-05-01T16:01:08.849Z,5.90
2018-05-01T16:03:37.050Z,5.80
2018-05-01T16:06:05.025Z,5.07
2018-05-01T16:08:33.864Z,4.47
2018-05-01T16:11:01.842Z,9.90
2018-05-01T16:13:30.555Z,5.00
2018-05-01T16:15:58.844Z,6.00
2018-05-01T16:18:26.860Z,9.17
2018-05-01T16:20:54.849Z,11.47
2018-05-01T16:23:22.724Z,7.60
2018-05-01T16:25:50.644Z,5.23
2018-05-01T16:28:18.590Z,6.00
2018-05-01T16:30:46.614Z,5.87
2018-05-01T16:33:15.287Z,5.43
2018-05-01T16:35:43.496Z,4.40
2018-05-01T16:38:12.366Z,5.77
2018-05-01T16:40:40.414Z,6.60
2018-05-01T16:43:08.381Z,5.67
2018-05-01T16:45:36.389Z,5.50
2018-05-01T16:48:05.555Z,4.60
2018-05-01T16:50:34.968Z,9.03
2018-05-01T16:53:02.853Z,4.90
2018-05-01T16:55:30.734Z,4.77
2018-05-01T16:57:59.581Z,8.93
2018-05-01T17:00:28.404Z,7.13
2018-05-01T17:02:57.158Z,13.73
2018-05-01T17:05:26.800Z,16.77
2018-05-01T17:07:54.682Z,5.53
2018-05-01T17:10:23.390Z,6.93
2018-05-01T17:12:51.236Z,5.63
2018-05-01T17:15:19.087Z,5.53
2018-05-01T17:17:48.112Z,6.10
2018-05-01T17:20:16.970Z,5.23
2018-05-01T17:22:44.870Z,5.17
2018-05-01T17:25:13.557Z,5.17
2018-05-01T17:27:42.545Z,5.73
2018-05-01T17:30:10.442Z,6.63
2018-05-01T17:32:39.400Z,6.03
2018-05-01T17:35:07.584Z,10.13
2018-05-01T17:37:35.659Z,5.43
2018-05-01T17:40:04.345Z,6.93
2018-05-01T17:42:33.949Z,7.20
2018-05-01T17:45:01.895Z,9.17
2018-05-01T17:47:29.856Z,12.93
2018-05-01T17:49:59.012Z,6.93
2018-05-01T17:52:27.089Z,12.03
2018-05-01T17:54:55.814Z,7.37
2018-05-01T17:57:23.872Z,8.13
2018-05-01T17:59:53.227Z,10.20
2018-05-01T18:02:21.938Z,8.43
2018-05-01T18:04:52.128Z,7.83
2018-05-01T18:07:21.345Z,11.33
2018-05-01T18:09:49.293Z,12.13
2018-05-01T18:12:19.262Z,9.50
2018-05-01T18:14:47.895Z,11.07
2018-05-01T18:17:15.870Z,11.10
2018-05-01T18:19:43.884Z,8.53
2018-05-01T18:22:12.650Z,11.43
2018-05-01T18:24:41.322Z,13.97
2018-05-01T18:27:09.299Z,9.70
2018-05-01T18:29:37.904Z,8.57
2018-05-01T18:32:06.382Z,12.63
2018-05-01T18:34:34.376Z,10.10
2018-05-01T18:37:02.316Z,11.10
2018-05-01T18:39:30.512Z,7.67
2018-05-01T18:41:58.980Z,12.60
2018-05-01T18:44:26.824Z,10.27
2018-05-01T18:46:55.156Z,10.27
2018-05-01T18:49:23.063Z,13.17
2018-05-01T19:01:37.864Z,9.20
2018-05-01T19:04:07.514Z,15.03
2018-05-01T19:06:36.402Z,11.87
2018-05-01T19:09:05.014Z,10.20
2018-05-01T19:11:32.942Z,10.47
2018-05-01T19:14:01.299Z,9.77
2018-05-01T19:16:29.252Z,9.80
2018-05-01T19:18:57.181Z,9.60
2018-05-01T19:21:25.202Z,10.03
2018-05-01T19:23:53.140Z,10.77
2018-05-01T19:26:21.002Z,11.27
2018-05-01T19:28:49.149Z,10.23
2018-05-01T19:31:17.093Z,8.13
2018-05-01T19:33:45.496Z,10.27
2018-05-01T19:36:13.570Z,11.00
2018-05-01T19:38:41.587Z,14.13
2018-05-01T19:41:09.552Z,11.40
2018-05-01T19:43:37.460Z,11.60
2018-05-01T19:46:05.741Z,12.23
2018-05-01T19:48:34.749Z,10.33
2018-05-01T19:51:02.724Z,11.63
2018-05-01T19:53:30.874Z,9.63
2018-05-01T19:55:58.981Z,11.27
2018-05-01T19:58:26.897Z,11.17
2018-05-01T20:00:55.479Z,13.13
2018-05-01T20:03:23.582Z,12.13
2018-05-01T20:05:52.192Z,12.73
2018-05-01T20:08:20.095Z,13.53
2018-05-01T20:10:48.105Z,11.00
2018-05-01T20:13:16.745Z,13.53
2018-05-01T20:15:44.609Z,11.23
2018-05-01T20:18:12.465Z,10.03
2018-05-01T20:20:40.349Z,10.77
2018-05-01T20:23:08.244Z,9.20
2018-05-01T20:25:36.067Z,10.67
2018-05-01T20:28:03.960Z,10.97
2018-05-01T20:30:32.872Z,11.37
2018-05-01T20:33:01.377Z,10.73
2018-05-01T20:35:29.265Z,10.90
2018-05-01T20:37:57.204Z,10.03
2018-05-01T20:40:25.230Z,7.47
2018-05-01T20:42:53.080Z,12.53
2018-05-01T20:45:21.003Z,12.30
2018-05-01T20:47:49.525Z,9.27
2018-05-01T20:50:17.631Z,12.40
2018-05-01T20:52:45.490Z,12.50
2018-05-01T20:55:13.402Z,11.83
2018-05-01T20:57:41.205Z,13.23
2018-05-01T21:00:09.096Z,11.33
2018-05-01T21:02:37.049Z,13.00
2018-05-01T21:05:04.909Z,13.50
2018-05-01T21:07:32.829Z,12.27
2018-05-01T21:10:00.713Z,10.50
2018-05-01T21:12:28.656Z,11.73
2018-05-01T21:14:56.580Z,9.87
2018-05-01T21:17:24.652Z,14.63
2018-05-01T21:19:52.760Z,14.93
2018-05-01T21:22:20.702Z,15.07
2018-05-01T21:24:48.651Z,16.60
2018-05-01T21:27:16.636Z,12.73
2018-05-01T21:29:44.538Z,12.20
2018-05-01T21:32:13.188Z,14.03
2018-05-01T21:34:41.725Z,13.40
2018-05-01T21:37:10.438Z,14.90
2018-05-01T21:39:38.383Z,13.97
2018-05-01T21:42:06.865Z,40.37
2018-05-01T21:44:34.782Z,62.53
2018-05-01T21:47:03.326Z,18.23
2018-05-01T21:49:31.160Z,9.63
2018-05-01T22:04:59.279Z,13.80
2018-05-01T22:07:27.268Z,10.47
2018-05-01T22:09:55.859Z,10.53
2018-05-01T22:12:23.828Z,5.47
2018-05-01T22:14:51.912Z,8.80
2018-05-01T22:17:19.836Z,4.40
2018-05-01T22:19:47.741Z,5.37
2018-05-01T22:22:15.734Z,6.53
2018-05-01T22:24:44.413Z,7.43
2018-05-01T22:27:12.285Z,6.00
2018-05-01T22:29:40.469Z,3.43
2018-05-01T22:32:09.032Z,4.47
2018-05-01T22:34:37.324Z,5.03
2018-05-01T22:37:06.173Z,3.23
2018-05-01T22:39:34.590Z,4.57
2018-05-01T22:42:03.095Z,2.73
2018-05-01T22:44:30.981Z,2.30
2018-05-01T22:46:58.856Z,3.03
2018-05-01T22:49:27.509Z,4.50
2018-05-01T22:51:55.388Z,2.90
2018-05-01T22:54:23.868Z,5.63
2018-05-01T22:56:51.720Z,5.53
2018-05-01T22:59:19.514Z,2.17
2018-05-01T23:01:47.785Z,3.70
2018-05-01T23:04:16.329Z,1.63
2018-05-01T23:06:44.305Z,1.63
2018-05-01T23:09:12.086Z,4.33
2018-05-01T23:11:39.953Z,2.37
2018-05-01T23:14:08.480Z,3.03
2018-05-01T23:16:36.364Z,3.07
2018-05-01T23:19:04.281Z,3.33
2018-05-01T23:21:33.006Z,1.63
2018-05-01T23:24:00.917Z,1.43
2018-05-01T23:26:28.816Z,1.67
2018-05-01T23:28:56.899Z,2.90
2018-05-01T23:31:25.450Z,1.17
2018-05-01T23:33:53.363Z,1.50
2018-05-01T23:36:21.617Z,1.90
2018-05-01T23:38:49.549Z,1.20
2018-05-01T23:41:17.527Z,2.53
2018-05-01T23:43:45.836Z,1.50
2018-05-01T23:46:13.732Z,2.63
2018-05-01T23:48:41.756Z,3.23
2018-05-01T23:51:09.688Z,1.50
2018-05-01T23:53:37.610Z,3.57
2018-05-01T23:56:05.536Z,4.80
2018-05-01T23:58:33.578Z,1.83
